createdAt,value
2018-03-02T00:00:14.118Z,6.80
2018-03-02T00:01:14.126Z,6.80
2018-03-02T00:02:14.132Z,7.00
2018-03-02T00:03:14.139Z,7.40
2018-03-02T00:04:14.147Z,7.20
2018-03-02T00:05:14.152Z,7.10
2018-03-02T00:06:14.162Z,7.30
2018-03-02T00:07:14.166Z,6.90
2018-03-02T00:08:14.174Z,7.30
2018-03-02T00:09:14.180Z,7.20
2018-03-02T00:10:14.188Z,6.70
2018-03-02T00:11:14.194Z,7.20
2018-03-02T00:12:14.202Z,7.10
2018-03-02T00:13:14.210Z,6.80
2018-03-02T00:14:14.218Z,7.10
2018-03-02T00:15:14.222Z,6.90
2018-03-02T00:16:14.228Z,7.00
2018-03-02T00:17:14.235Z,7.30
2018-03-02T00:18:14.242Z,7.00
2018-03-02T00:19:14.252Z,7.10
2018-03-02T00:20:14.258Z,7.80
2018-03-02T00:21:14.264Z,7.50
2018-03-02T00:22:14.270Z,7.10
2018-03-02T00:23:14.277Z,6.60
2018-03-02T00:24:14.289Z,7.10
2018-03-02T00:25:14.293Z,7.40
2018-03-02T00:26:14.297Z,7.70
2018-03-02T00:27:14.304Z,7.50
2018-03-02T00:28:14.314Z,7.50
2018-03-02T00:29:14.317Z,7.30
2018-03-02T00:30:14.325Z,8.10
2018-03-02T00:31:14.331Z,7.40
2018-03-02T00:32:14.338Z,7.60
2018-03-02T00:33:14.346Z,7.60
2018-03-02T00:34:14.353Z,7.40
2018-03-02T00:35:14.359Z,7.40
2018-03-02T00:36:14.368Z,7.50
2018-03-02T00:37:14.374Z,7.20
2018-03-02T00:38:14.382Z,7.40
2018-03-02T00:39:14.387Z,7.90
2018-03-02T00:40:14.393Z,7.50
2018-03-02T00:41:14.402Z,7.40
2018-03-02T00:42:14.406Z,7.50
2018-03-02T00:43:14.419Z,7.20
2018-03-02T00:44:14.421Z,7.70
2018-03-02T00:45:14.428Z,7.60
2018-03-02T00:46:14.437Z,7.50
2018-03-02T00:47:14.441Z,7.10
2018-03-02T00:48:14.449Z,7.10
2018-03-02T00:49:14.454Z,7.90
2018-03-02T00:50:14.464Z,7.90
2018-03-02T00:51:14.469Z,8.50
2018-03-02T00:52:14.481Z,7.80
2018-03-02T00:53:14.481Z,7.30
2018-03-02T00:54:14.488Z,8.10
2018-03-02T00:55:14.498Z,7.60
2018-03-02T00:56:14.503Z,8.10
2018-03-02T00:57:14.509Z,7.30
2018-03-02T00:58:14.516Z,7.80
2018-03-02T00:59:14.524Z,7.90
2018-03-02T01:00:14.529Z,7.10
2018-03-02T01:01:14.536Z,8.10
2018-03-02T01:02:14.543Z,7.70
2018-03-02T01:03:14.550Z,7.10
2018-03-02T01:04:14.558Z,7.90
2018-03-02T01:05:14.580Z,7.50
2018-03-02T01:06:14.569Z,8.40
2018-03-02T01:07:14.577Z,7.50
2018-03-02T01:08:14.585Z,7.80
2018-03-02T01:09:14.589Z,8.10
2018-03-02T01:10:14.598Z,7.70
2018-03-02T01:11:14.605Z,7.30
2018-03-02T01:12:14.610Z,7.90
2018-03-02T01:13:14.617Z,7.60
2018-03-02T01:14:14.624Z,7.70
2018-03-02T01:15:14.631Z,7.60
2018-03-02T01:16:14.639Z,7.90
2018-03-02T01:17:14.643Z,7.50
2018-03-02T01:18:14.652Z,7.80
2018-03-02T01:19:14.658Z,8.20
2018-03-02T01:20:14.668Z,7.90
2018-03-02T01:21:14.672Z,7.80
2018-03-02T01:22:14.678Z,7.60
2018-03-02T01:23:14.685Z,7.90
2018-03-02T01:24:14.698Z,8.20
2018-03-02T01:25:14.699Z,7.80
2018-03-02T01:26:14.701Z,8.00
2018-03-02T01:27:14.713Z,7.50
2018-03-02T01:28:14.720Z,7.90
2018-03-02T01:29:14.726Z,8.00
2018-03-02T01:30:14.734Z,7.50
2018-03-02T01:31:14.739Z,7.50
2018-03-02T01:32:14.747Z,8.60
2018-03-02T01:33:14.753Z,8.40
2018-03-02T01:34:14.761Z,8.30
2018-03-02T01:35:14.767Z,8.00
2018-03-02T01:36:14.773Z,7.60
2018-03-02T01:37:14.779Z,8.10
2018-03-02T01:38:14.791Z,8.10
2018-03-02T01:39:14.793Z,8.40
2018-03-02T01:40:14.801Z,8.30
2018-03-02T01:41:14.807Z,8.10
2018-03-02T01:42:14.816Z,8.20
2018-03-02T01:43:14.821Z,8.40
2018-03-02T01:44:14.828Z,8.10
2018-03-02T01:45:14.837Z,8.20
2018-03-02T01:46:14.846Z,8.20
2018-03-02T01:47:14.847Z,8.40
2018-03-02T01:48:14.854Z,8.10
2018-03-02T01:49:14.860Z,8.20
2018-03-02T01:50:14.868Z,8.20
2018-03-02T01:51:14.876Z,8.20
2018-03-02T01:52:14.882Z,8.40
2018-03-02T01:53:14.887Z,8.10
2018-03-02T01:54:14.903Z,8.30
2018-03-02T01:55:14.902Z,7.90
2018-03-02T01:56:14.910Z,8.10
2018-03-02T01:57:14.914Z,8.30
2018-03-02T01:58:14.924Z,8.10
2018-03-02T01:59:14.932Z,8.20
2018-03-02T02:00:14.937Z,8.70
2018-03-02T02:01:14.942Z,8.40
2018-03-02T02:02:14.944Z,8.50
2018-03-02T02:03:14.956Z,8.10
2018-03-02T02:04:14.962Z,8.20
2018-03-02T02:05:14.969Z,8.40
2018-03-02T02:06:14.974Z,7.80
2018-03-02T02:07:14.987Z,8.20
2018-03-02T02:08:14.989Z,8.10
2018-03-02T02:09:14.992Z,8.00
2018-03-02T02:10:15.002Z,8.00
2018-03-02T02:11:15.010Z,8.50
2018-03-02T02:12:15.012Z,8.30
2018-03-02T02:13:15.022Z,8.50
2018-03-02T02:14:15.026Z,8.60
2018-03-02T02:15:15.037Z,8.50
2018-03-02T02:16:15.042Z,8.80
2018-03-02T02:17:15.048Z,8.70
2018-03-02T02:18:15.054Z,8.60
2018-03-02T02:19:15.061Z,8.60
2018-03-02T02:20:15.067Z,8.30
2018-03-02T02:21:15.074Z,8.30
2018-03-02T02:22:15.081Z,8.60
2018-03-02T02:23:15.091Z,8.50
2018-03-02T02:24:15.092Z,8.60
2018-03-02T02:25:15.103Z,8.70
2018-03-02T02:26:15.108Z,8.40
2018-03-02T02:27:15.123Z,8.90
2018-03-02T02:28:15.121Z,8.60
2018-03-02T02:29:15.126Z,8.60
2018-03-02T02:30:15.145Z,8.40
2018-03-02T02:31:15.141Z,8.80
2018-03-02T02:32:15.147Z,8.20
2018-03-02T02:33:15.170Z,7.90
2018-03-02T02:34:15.168Z,8.90
2018-03-02T02:35:15.167Z,8.60
2018-03-02T02:36:15.207Z,8.50
2018-03-02T02:37:15.180Z,8.50
2018-03-02T02:38:15.187Z,8.40
2018-03-02T02:39:15.197Z,7.90
2018-03-02T02:40:15.208Z,8.50
2018-03-02T02:41:15.209Z,8.80
2018-03-02T02:42:15.215Z,8.40
2018-03-02T02:43:15.221Z,8.40
2018-03-02T02:44:15.225Z,8.60
2018-03-02T02:45:15.241Z,8.80
2018-03-02T02:46:15.240Z,8.80
2018-03-02T02:47:15.248Z,8.40
2018-03-02T02:48:15.254Z,9.10
2018-03-02T02:49:15.260Z,9.10
2018-03-02T02:50:15.267Z,8.40
2018-03-02T02:51:15.274Z,8.00
2018-03-02T02:52:15.281Z,8.80
2018-03-02T02:53:15.287Z,9.00
2018-03-02T02:54:15.295Z,8.60
2018-03-02T02:55:15.300Z,8.70
2018-03-02T02:56:15.307Z,8.70
2018-03-02T02:57:15.314Z,8.90
2018-03-02T02:58:15.321Z,9.00
2018-03-02T02:59:15.331Z,9.00
2018-03-02T03:00:15.333Z,8.60
2018-03-02T03:01:15.344Z,8.70
2018-03-02T03:02:15.346Z,8.50
2018-03-02T03:03:15.353Z,8.60
2018-03-02T03:04:15.362Z,9.00
2018-03-02T03:05:15.365Z,8.30
2018-03-02T03:06:15.372Z,8.80
2018-03-02T03:07:15.379Z,9.90
2018-03-02T03:08:15.387Z,8.70
2018-03-02T03:09:15.389Z,8.60
2018-03-02T03:10:15.398Z,8.60
2018-03-02T03:11:15.404Z,8.90
2018-03-02T03:12:15.411Z,8.80
2018-03-02T03:13:15.421Z,8.80
2018-03-02T03:14:15.429Z,9.30
2018-03-02T03:15:15.434Z,8.80
2018-03-02T03:16:15.442Z,9.10
2018-03-02T03:17:15.446Z,8.60
2018-03-02T03:18:15.459Z,8.80
2018-03-02T03:19:15.460Z,9.40
2018-03-02T03:20:15.467Z,8.80
2018-03-02T03:21:15.473Z,9.20
2018-03-02T03:22:15.481Z,8.50
2018-03-02T03:23:15.487Z,8.80
2018-03-02T03:24:15.494Z,8.60
2018-03-02T03:25:15.501Z,8.90
2018-03-02T03:26:15.506Z,8.90
2018-03-02T03:27:15.513Z,9.00
2018-03-02T03:28:15.520Z,9.70
2018-03-02T03:29:15.525Z,8.70
2018-03-02T03:30:15.534Z,9.20
2018-03-02T03:31:15.541Z,9.20
2018-03-02T03:32:15.547Z,9.30
2018-03-02T03:33:15.554Z,9.00
2018-03-02T03:34:15.560Z,9.50
2018-03-02T03:35:15.566Z,9.00
2018-03-02T03:36:15.574Z,8.90
2018-03-02T03:37:15.578Z,9.20
2018-03-02T03:38:15.587Z,8.70
2018-03-02T03:39:15.594Z,9.30
2018-03-02T03:40:15.608Z,9.10
2018-03-02T03:41:15.604Z,9.20
2018-03-02T03:42:15.610Z,8.80
2018-03-02T03:43:15.615Z,8.70
2018-03-02T03:44:15.626Z,9.60
2018-03-02T03:45:15.630Z,8.60
2018-03-02T03:46:15.638Z,9.10
2018-03-02T03:47:15.646Z,8.60
2018-03-02T03:48:15.651Z,8.90
2018-03-02T03:49:15.657Z,9.20
2018-03-02T03:50:15.664Z,8.90
2018-03-02T03:51:15.678Z,9.30
2018-03-02T03:52:15.681Z,9.10
2018-03-02T03:53:15.685Z,9.00
2018-03-02T03:54:15.691Z,9.20
2018-03-02T03:55:15.697Z,9.00
2018-03-02T03:56:15.705Z,9.20
2018-03-02T03:57:15.710Z,9.20
2018-03-02T03:58:15.716Z,9.20
2018-03-02T03:59:15.723Z,9.00
2018-03-02T04:00:15.729Z,9.40
2018-03-02T04:01:15.736Z,8.60
2018-03-02T04:02:15.742Z,9.00
2018-03-02T04:03:15.749Z,8.50
2018-03-02T04:04:15.755Z,9.30
2018-03-02T04:05:15.761Z,9.80
2018-03-02T04:06:15.767Z,9.40
2018-03-02T04:07:15.777Z,9.20
2018-03-02T04:08:15.786Z,9.60
2018-03-02T04:09:15.788Z,9.00
2018-03-02T04:10:15.792Z,9.10
2018-03-02T04:11:15.801Z,9.30
2018-03-02T04:12:15.809Z,9.30
2018-03-02T04:13:15.814Z,9.90
2018-03-02T04:14:15.820Z,8.90
2018-03-02T04:15:15.827Z,10.40
2018-03-02T04:16:15.833Z,10.60
2018-03-02T04:17:15.840Z,12.50
2018-03-02T04:18:15.846Z,10.00
2018-03-02T04:19:15.852Z,11.80
2018-03-02T04:20:15.859Z,10.40
2018-03-02T04:21:15.864Z,11.50
2018-03-02T04:22:15.871Z,10.20
2018-03-02T04:23:15.923Z,10.80
2018-03-02T04:24:15.885Z,10.00
2018-03-02T04:25:15.895Z,10.80
2018-03-02T04:26:15.900Z,11.00
2018-03-02T04:27:15.905Z,10.70
2018-03-02T04:28:15.913Z,11.70
2018-03-02T04:29:15.918Z,11.00
2018-03-02T04:30:15.924Z,10.70
2018-03-02T04:31:15.932Z,10.10
2018-03-02T04:32:15.939Z,10.70
2018-03-02T04:33:15.943Z,10.60
2018-03-02T04:34:15.950Z,10.20
2018-03-02T04:35:15.961Z,11.10
2018-03-02T04:36:15.963Z,10.50
2018-03-02T04:37:15.969Z,12.20
2018-03-02T04:38:15.977Z,11.40
2018-03-02T04:39:15.983Z,10.90
2018-03-02T04:40:15.991Z,11.10
2018-03-02T04:41:16.000Z,9.80
2018-03-02T04:42:16.002Z,10.20
2018-03-02T04:43:16.009Z,9.90
2018-03-02T04:44:16.016Z,10.80
2018-03-02T04:45:16.019Z,10.10
2018-03-02T04:46:16.031Z,12.00
2018-03-02T04:47:16.040Z,11.30
2018-03-02T04:48:16.045Z,10.50
2018-03-02T04:49:16.048Z,11.40
2018-03-02T04:50:16.054Z,9.60
2018-03-02T04:51:16.064Z,10.80
2018-03-02T04:52:16.092Z,12.00
2018-03-02T04:53:16.075Z,11.10
2018-03-02T04:54:16.083Z,11.20
2018-03-02T04:55:16.091Z,11.20
2018-03-02T04:56:16.099Z,12.60
2018-03-02T04:57:16.102Z,11.90
2018-03-02T04:58:16.109Z,10.50
2018-03-02T04:59:16.113Z,10.80
2018-03-02T05:00:16.122Z,10.80
2018-03-02T05:01:16.129Z,10.00
2018-03-02T05:02:16.136Z,9.90
2018-03-02T05:03:16.146Z,10.60
2018-03-02T05:04:16.152Z,10.50
2018-03-02T05:05:16.155Z,10.10
2018-03-02T05:06:16.163Z,10.00
2018-03-02T05:07:16.173Z,10.70
2018-03-02T05:08:16.177Z,9.70
2018-03-02T05:09:16.194Z,9.60
2018-03-02T05:10:16.190Z,10.20
2018-03-02T05:11:16.197Z,10.70
2018-03-02T05:12:16.208Z,10.70
2018-03-02T05:13:16.211Z,10.30
2018-03-02T05:14:16.223Z,34.50
2018-03-02T05:15:16.226Z,25.40
2018-03-02T05:16:16.231Z,45.10
2018-03-02T05:17:16.238Z,54.70
2018-03-02T05:18:16.242Z,62.50
2018-03-02T05:19:16.254Z,60.50
2018-03-02T05:20:16.266Z,56.10
2018-03-02T05:21:16.268Z,44.20
2018-03-02T05:22:16.275Z,43.40
2018-03-02T05:23:16.284Z,42.10
2018-03-02T05:24:16.290Z,40.30
2018-03-02T05:25:16.295Z,56.00
2018-03-02T05:26:16.302Z,82.10
2018-03-02T05:27:16.308Z,104.30
2018-03-02T05:28:16.316Z,115.40
2018-03-02T05:29:16.321Z,129.70
2018-03-02T05:30:16.329Z,107.70
2018-03-02T05:31:16.335Z,112.20
2018-03-02T05:32:16.345Z,90.40
2018-03-02T05:33:16.348Z,81.50
2018-03-02T05:34:16.356Z,90.10
2018-03-02T05:35:16.364Z,74.10
2018-03-02T05:36:16.370Z,72.70
2018-03-02T05:37:16.376Z,74.10
2018-03-02T05:38:16.382Z,70.50
2018-03-02T05:39:16.390Z,73.10
2018-03-02T05:40:16.397Z,68.80
2018-03-02T05:41:16.403Z,56.90
2018-03-02T05:42:16.413Z,62.90
2018-03-02T05:43:16.418Z,60.60
2018-03-02T05:44:16.425Z,60.60
2018-03-02T05:45:16.431Z,66.40
2018-03-02T05:46:16.438Z,62.40
2018-03-02T05:47:16.445Z,65.60
2018-03-02T05:48:16.451Z,73.30
2018-03-02T05:49:16.457Z,99.40
2018-03-02T05:50:16.464Z,94.50
2018-03-02T05:51:16.473Z,87.60
2018-03-02T05:52:16.482Z,85.10
2018-03-02T05:53:16.487Z,82.50
2018-03-02T05:54:16.493Z,80.70
2018-03-02T05:55:16.500Z,79.50
2018-03-02T05:56:16.507Z,73.80
2018-03-02T05:57:16.512Z,72.50
2018-03-02T05:58:16.520Z,68.10
2018-03-02T05:59:16.528Z,69.60
2018-03-02T06:00:16.534Z,64.00
2018-03-02T06:01:16.535Z,68.10
2018-03-02T06:02:16.552Z,64.10
2018-03-02T06:03:16.555Z,64.10
2018-03-02T06:04:16.560Z,64.40
2018-03-02T06:05:16.566Z,61.70
2018-03-02T06:06:16.580Z,63.10
2018-03-02T06:07:16.581Z,60.90
2018-03-02T06:08:16.588Z,58.70
2018-03-02T06:09:16.594Z,60.00
2018-03-02T06:10:16.601Z,54.00
2018-03-02T06:11:16.609Z,56.20
2018-03-02T06:12:16.616Z,60.70
2018-03-02T06:13:16.623Z,55.90
2018-03-02T06:14:16.632Z,58.20
2018-03-02T06:15:16.636Z,60.00
2018-03-02T06:16:16.645Z,56.20
2018-03-02T06:17:16.648Z,62.30
2018-03-02T06:18:16.655Z,56.40
2018-03-02T06:19:16.662Z,51.30
2018-03-02T06:20:16.671Z,50.80
2018-03-02T06:21:16.677Z,54.10
2018-03-02T06:22:16.685Z,51.80
2018-03-02T06:23:16.694Z,54.30
2018-03-02T06:24:16.696Z,52.60
2018-03-02T06:25:16.705Z,49.90
2018-03-02T06:26:16.710Z,49.80
2018-03-02T06:27:16.716Z,53.40
2018-03-02T06:28:16.724Z,50.60
2018-03-02T06:29:16.729Z,47.60
2018-03-02T06:30:16.736Z,47.00
2018-03-02T06:31:16.743Z,45.20
2018-03-02T06:32:16.753Z,44.50
2018-03-02T06:33:16.756Z,46.80
2018-03-02T06:34:16.763Z,47.10
2018-03-02T06:35:16.773Z,44.90
2018-03-02T06:36:16.777Z,48.10
2018-03-02T06:37:16.782Z,47.20
2018-03-02T06:38:16.789Z,47.50
2018-03-02T06:39:16.797Z,41.40
2018-03-02T06:40:16.831Z,43.20
2018-03-02T06:41:16.809Z,45.00
2018-03-02T06:42:16.816Z,47.00
2018-03-02T06:43:16.825Z,40.30
2018-03-02T06:44:16.836Z,41.30
2018-03-02T06:45:16.838Z,46.80
2018-03-02T06:46:16.845Z,37.70
2018-03-02T06:47:16.893Z,43.40
2018-03-02T06:48:16.857Z,41.50
2018-03-02T06:49:16.865Z,40.10
2018-03-02T06:50:16.872Z,35.60
2018-03-02T06:51:16.879Z,41.30
2018-03-02T06:52:16.886Z,37.40
2018-03-02T06:53:16.890Z,40.60
2018-03-02T06:54:16.896Z,36.80
2018-03-02T06:55:16.904Z,36.50
2018-03-02T06:56:16.912Z,35.90
2018-03-02T06:57:16.915Z,37.00
2018-03-02T06:58:16.927Z,37.70
2018-03-02T06:59:16.930Z,37.00
2018-03-02T07:00:16.937Z,36.10
2018-03-02T07:01:16.939Z,39.20
2018-03-02T07:02:16.949Z,34.40
2018-03-02T07:03:16.957Z,36.40
2018-03-02T07:04:16.988Z,35.20
2018-03-02T07:05:16.969Z,35.80
2018-03-02T07:06:16.975Z,35.20
2018-03-02T07:07:16.984Z,36.30
2018-03-02T07:08:16.991Z,36.70
2018-03-02T07:09:16.996Z,33.80
2018-03-02T07:10:17.004Z,32.80
2018-03-02T07:11:17.011Z,33.80
2018-03-02T07:12:17.017Z,32.50
2018-03-02T07:13:17.023Z,31.40
2018-03-02T07:14:17.030Z,30.90
2018-03-02T07:15:17.037Z,32.20
2018-03-02T07:16:17.045Z,34.70
2018-03-02T07:17:17.123Z,32.70
2018-03-02T07:18:17.066Z,35.00
2018-03-02T07:19:17.064Z,30.00
2018-03-02T07:20:17.072Z,34.70
2018-03-02T07:21:17.077Z,31.90
2018-03-02T07:22:17.084Z,30.70
2018-03-02T07:23:17.090Z,31.40
2018-03-02T07:24:17.098Z,31.30
2018-03-02T07:25:17.103Z,32.50
2018-03-02T07:26:17.111Z,31.40
2018-03-02T07:27:17.117Z,31.10
2018-03-02T07:28:17.128Z,29.10
2018-03-02T07:29:17.129Z,31.10
2018-03-02T07:30:17.138Z,29.50
2018-03-02T07:31:17.142Z,29.10
2018-03-02T07:32:17.150Z,30.40
2018-03-02T07:33:17.160Z,32.60
2018-03-02T07:34:17.162Z,29.30
2018-03-02T07:35:17.171Z,29.10
2018-03-02T07:36:17.176Z,29.90
2018-03-02T07:37:17.182Z,27.40
2018-03-02T07:38:17.190Z,28.20
2018-03-02T07:39:17.196Z,27.50
2018-03-02T07:40:17.208Z,29.00
2018-03-02T07:41:17.210Z,29.50
2018-03-02T07:42:17.218Z,28.70
2018-03-02T07:43:17.222Z,29.90
2018-03-02T07:44:17.282Z,28.10
2018-03-02T07:45:17.236Z,26.00
2018-03-02T07:46:17.242Z,29.40
2018-03-02T07:47:17.249Z,27.70
2018-03-02T07:48:17.257Z,27.10
2018-03-02T07:49:17.266Z,26.30
2018-03-02T07:50:17.270Z,27.60
2018-03-02T07:51:17.275Z,27.40
2018-03-02T07:52:17.288Z,26.60
2018-03-02T07:53:17.288Z,27.40
2018-03-02T07:54:17.298Z,25.70
2018-03-02T07:55:17.303Z,25.20
2018-03-02T07:56:17.309Z,26.10
2018-03-02T07:57:17.324Z,25.90
2018-03-02T07:58:17.326Z,25.30
2018-03-02T07:59:17.331Z,24.40
2018-03-02T08:00:17.338Z,23.80
2018-03-02T08:01:17.342Z,23.80
2018-03-02T08:02:17.357Z,25.60
2018-03-02T08:03:17.354Z,24.40
2018-03-02T08:04:17.409Z,24.00
2018-03-02T08:05:17.373Z,24.20
2018-03-02T08:06:17.377Z,23.30
2018-03-02T08:07:17.383Z,25.20
2018-03-02T08:08:17.390Z,24.90
2018-03-02T08:09:17.396Z,22.60
2018-03-02T08:10:17.403Z,24.00
2018-03-02T08:11:17.409Z,23.00
2018-03-02T08:12:17.419Z,24.70
2018-03-02T08:13:17.422Z,21.70
2018-03-02T08:14:17.429Z,23.70
2018-03-02T08:15:17.435Z,22.30
2018-03-02T08:16:17.446Z,23.20
2018-03-02T08:17:17.448Z,22.50
2018-03-02T08:18:17.456Z,23.70
2018-03-02T08:19:17.463Z,22.90
2018-03-02T08:20:17.469Z,23.90
2018-03-02T08:21:17.474Z,22.50
2018-03-02T08:22:17.482Z,22.80
2018-03-02T08:23:17.489Z,21.70
2018-03-02T08:24:17.499Z,21.40
2018-03-02T08:25:17.503Z,21.20
2018-03-02T08:26:17.508Z,20.20
2018-03-02T08:27:17.515Z,21.50
2018-03-02T08:28:17.521Z,19.60
2018-03-02T08:29:17.528Z,21.40
2018-03-02T08:30:17.539Z,22.40
2018-03-02T08:31:17.544Z,20.90
2018-03-02T08:32:17.548Z,21.80
2018-03-02T08:33:17.557Z,21.30
2018-03-02T08:34:17.563Z,21.00
2018-03-02T08:35:17.568Z,21.50
2018-03-02T08:36:17.575Z,21.40
2018-03-02T08:37:17.581Z,21.30
2018-03-02T08:38:17.590Z,20.70
2018-03-02T08:39:17.595Z,20.60
2018-03-02T08:40:17.603Z,20.00
2018-03-02T08:41:17.607Z,20.00
2018-03-02T08:42:17.614Z,22.90
2018-03-02T08:43:17.625Z,22.80
2018-03-02T08:44:17.629Z,20.30
2018-03-02T08:45:17.634Z,19.50
2018-03-02T08:46:17.641Z,21.40
2018-03-02T08:47:17.651Z,19.30
2018-03-02T08:48:17.672Z,21.70
2018-03-02T08:49:17.661Z,20.10
2018-03-02T08:50:17.666Z,19.60
2018-03-02T08:51:17.675Z,20.40
2018-03-02T08:52:17.684Z,21.30
2018-03-02T08:53:17.688Z,19.30
2018-03-02T08:54:17.696Z,19.90
2018-03-02T08:55:17.703Z,16.30
2018-03-02T08:56:17.716Z,19.60
2018-03-02T08:57:17.714Z,20.00
2018-03-02T08:58:17.723Z,19.50
2018-03-02T08:59:17.734Z,22.30
2018-03-02T09:00:17.736Z,19.10
2018-03-02T09:01:17.758Z,19.40
2018-03-02T09:02:17.747Z,18.20
2018-03-02T09:03:17.756Z,19.10
2018-03-02T09:04:17.768Z,18.40
2018-03-02T09:05:17.769Z,19.00
2018-03-02T09:06:17.827Z,19.40
2018-03-02T09:07:17.787Z,20.40
2018-03-02T09:08:17.789Z,19.30
2018-03-02T09:09:17.795Z,18.30
2018-03-02T09:10:17.802Z,18.00
2018-03-02T09:11:17.809Z,18.10
2018-03-02T09:12:17.840Z,18.90
2018-03-02T09:13:17.825Z,20.00
2018-03-02T09:14:17.829Z,19.00
2018-03-02T09:15:17.836Z,17.50
2018-03-02T09:16:17.842Z,17.40
2018-03-02T09:17:17.849Z,16.10
2018-03-02T09:18:17.912Z,18.40
2018-03-02T09:19:17.863Z,17.00
2018-03-02T09:20:17.871Z,16.90
2018-03-02T09:21:17.875Z,19.10
2018-03-02T09:22:17.883Z,18.70
2018-03-02T09:23:17.891Z,17.20
2018-03-02T09:24:17.897Z,18.70
2018-03-02T09:25:17.903Z,18.70
2018-03-02T09:26:17.911Z,18.00
2018-03-02T09:27:17.917Z,17.60
2018-03-02T09:28:17.922Z,16.00
2018-03-02T09:29:17.930Z,17.30
2018-03-02T09:30:17.936Z,18.60
2018-03-02T09:31:17.945Z,18.50
2018-03-02T09:32:17.950Z,17.40
2018-03-02T09:33:17.998Z,16.80
2018-03-02T09:34:17.965Z,17.50
2018-03-02T09:35:17.973Z,18.50
2018-03-02T09:36:17.978Z,16.80
2018-03-02T09:37:18.021Z,18.40
2018-03-02T09:38:17.990Z,17.40
2018-03-02T09:39:18.000Z,17.10
2018-03-02T09:40:18.010Z,18.30
2018-03-02T09:41:18.010Z,17.40
2018-03-02T09:42:18.021Z,16.70
2018-03-02T09:43:18.025Z,16.60
2018-03-02T09:44:18.031Z,17.00
2018-03-02T09:45:18.038Z,15.60
2018-03-02T09:46:18.044Z,16.80
2018-03-02T09:47:18.051Z,16.50
2018-03-02T09:48:18.090Z,15.80
2018-03-02T09:49:18.063Z,15.30
2018-03-02T09:50:18.071Z,14.70
2018-03-02T09:51:18.078Z,16.30
2018-03-02T09:52:18.085Z,15.70
2018-03-02T09:53:18.093Z,17.50
2018-03-02T09:54:18.097Z,16.40
2018-03-02T09:55:18.105Z,15.40
2018-03-02T09:56:18.112Z,15.80
2018-03-02T09:57:18.118Z,17.00
2018-03-02T09:58:18.124Z,16.70
2018-03-02T09:59:18.132Z,15.70
2018-03-02T10:00:18.140Z,14.30
2018-03-02T10:01:18.144Z,15.20
2018-03-02T10:02:18.150Z,15.30
2018-03-02T10:03:18.158Z,15.60
2018-03-02T10:04:18.165Z,16.00
2018-03-02T10:05:18.172Z,14.40
2018-03-02T10:06:18.178Z,13.70
2018-03-02T10:07:18.185Z,14.40
2018-03-02T10:08:18.192Z,16.60
2018-03-02T10:09:18.197Z,14.70
2018-03-02T10:10:18.204Z,16.00
2018-03-02T10:11:18.212Z,14.10
2018-03-02T10:12:18.221Z,16.60
2018-03-02T10:13:18.225Z,15.70
2018-03-02T10:14:18.233Z,15.00
2018-03-02T10:15:18.238Z,14.40
2018-03-02T10:16:18.245Z,15.10
2018-03-02T10:17:18.266Z,15.80
2018-03-02T10:18:18.263Z,14.40
2018-03-02T10:19:18.266Z,14.90
2018-03-02T10:20:18.271Z,14.50
2018-03-02T10:21:18.278Z,13.60
2018-03-02T10:22:18.285Z,15.10
2018-03-02T10:23:18.293Z,14.50
2018-03-02T10:24:18.298Z,13.50
2018-03-02T10:25:18.308Z,14.80
2018-03-02T10:26:18.316Z,14.20
2018-03-02T10:27:18.321Z,13.70
2018-03-02T10:28:18.327Z,13.70
2018-03-02T10:29:18.333Z,15.70
2018-03-02T10:30:18.343Z,15.40
2018-03-02T10:31:18.345Z,15.10
2018-03-02T10:32:18.352Z,13.80
2018-03-02T10:33:18.359Z,13.90
2018-03-02T10:34:18.365Z,15.00
2018-03-02T10:35:18.372Z,13.70
2018-03-02T10:36:18.378Z,14.20
2018-03-02T10:37:18.391Z,13.90
2018-03-02T10:38:18.422Z,13.50
2018-03-02T10:39:18.399Z,13.30
2018-03-02T10:40:18.407Z,13.00
2018-03-02T10:41:18.411Z,12.40
2018-03-02T10:42:18.419Z,12.80
2018-03-02T10:43:18.426Z,12.40
2018-03-02T10:44:18.432Z,13.80
2018-03-02T10:45:18.439Z,13.50
2018-03-02T10:46:18.446Z,13.20
2018-03-02T10:47:18.453Z,13.50
2018-03-02T10:48:18.460Z,14.70
2018-03-02T10:49:18.466Z,15.00
2018-03-02T10:50:18.473Z,12.50
2018-03-02T10:51:18.487Z,12.20
2018-03-02T10:52:18.487Z,13.80
2018-03-02T10:53:18.495Z,13.20
2018-03-02T10:54:18.503Z,13.60
2018-03-02T10:55:18.508Z,13.60
2018-03-02T10:56:18.520Z,13.60
2018-03-02T10:57:18.520Z,12.90
2018-03-02T10:58:18.526Z,14.30
2018-03-02T10:59:18.534Z,12.50
2018-03-02T11:00:18.542Z,12.60
2018-03-02T11:01:18.548Z,12.20
2018-03-02T11:02:18.557Z,12.40
2018-03-02T11:03:18.561Z,12.80
2018-03-02T11:04:18.569Z,12.80
2018-03-02T11:05:18.576Z,13.60
2018-03-02T11:06:18.581Z,11.90
2018-03-02T11:07:18.588Z,13.20
2018-03-02T11:08:18.596Z,11.90
2018-03-02T11:09:18.601Z,11.50
2018-03-02T11:10:18.608Z,11.90
2018-03-02T11:11:18.616Z,13.10
2018-03-02T11:12:18.622Z,11.70
2018-03-02T11:13:18.628Z,12.40
2018-03-02T11:14:18.635Z,12.60
2018-03-02T11:15:18.650Z,11.50
2018-03-02T11:16:18.649Z,14.40
2018-03-02T11:17:18.655Z,12.90
2018-03-02T11:18:18.663Z,12.10
2018-03-02T11:19:18.665Z,12.90
2018-03-02T11:20:18.676Z,13.10
2018-03-02T11:21:18.685Z,12.50
2018-03-02T11:22:18.694Z,11.60
2018-03-02T11:23:18.698Z,11.40
2018-03-02T11:24:18.704Z,11.90
2018-03-02T11:25:18.709Z,11.60
2018-03-02T11:26:18.717Z,11.70
2018-03-02T11:27:18.723Z,12.40
2018-03-02T11:28:18.730Z,12.30
2018-03-02T11:29:18.737Z,14.60
2018-03-02T11:30:18.743Z,11.70
2018-03-02T11:31:18.751Z,12.60
2018-03-02T11:32:18.758Z,12.40
2018-03-02T11:33:18.765Z,12.50
2018-03-02T11:34:18.770Z,12.60
2018-03-02T11:35:18.778Z,12.20
2018-03-02T11:36:18.786Z,11.60
2018-03-02T11:37:18.790Z,11.70
2018-03-02T11:38:18.801Z,11.60
2018-03-02T11:39:18.804Z,11.10
2018-03-02T11:40:18.813Z,11.20
2018-03-02T11:41:18.818Z,11.30
2018-03-02T11:42:18.826Z,10.90
2018-03-02T11:43:18.832Z,11.30
2018-03-02T11:44:18.839Z,11.00
2018-03-02T11:45:18.845Z,11.10
2018-03-02T11:46:18.853Z,11.30
2018-03-02T11:47:18.860Z,10.90
2018-03-02T11:48:18.867Z,11.40
2018-03-02T11:49:18.874Z,11.50
2018-03-02T11:50:18.879Z,11.10
2018-03-02T11:51:18.886Z,11.70
2018-03-02T11:52:18.903Z,11.40
2018-03-02T11:53:18.901Z,11.20
2018-03-02T11:54:18.910Z,12.00
2018-03-02T11:55:18.913Z,12.40
2018-03-02T11:56:18.920Z,12.30
2018-03-02T11:57:18.927Z,10.80
2018-03-02T11:58:18.933Z,11.60
2018-03-02T11:59:18.941Z,12.20
2018-03-02T12:00:18.952Z,11.50
2018-03-02T12:01:18.955Z,11.70
2018-03-02T12:02:18.961Z,11.20
2018-03-02T12:03:18.969Z,11.40
2018-03-02T12:04:18.974Z,11.00
2018-03-02T12:05:18.982Z,10.90
2018-03-02T12:06:18.988Z,12.10
2018-03-02T12:07:18.996Z,11.00
2018-03-02T12:08:19.002Z,10.70
2018-03-02T12:09:19.008Z,11.70
2018-03-02T12:10:19.016Z,11.70
2018-03-02T12:11:19.022Z,11.30
2018-03-02T12:12:19.035Z,10.90
2018-03-02T12:13:19.035Z,11.10
2018-03-02T12:14:19.042Z,10.70
2018-03-02T12:15:19.049Z,11.20
2018-03-02T12:16:19.058Z,11.20
2018-03-02T12:17:19.064Z,10.80
2018-03-02T12:18:19.069Z,10.60
2018-03-02T12:19:19.079Z,10.80
2018-03-02T12:20:19.083Z,11.30
2018-03-02T12:21:19.093Z,10.80
2018-03-02T12:22:19.097Z,11.70
2018-03-02T12:23:19.104Z,11.00
2018-03-02T12:24:19.111Z,11.20
2018-03-02T12:25:19.119Z,11.40
2018-03-02T12:26:19.124Z,10.50
2018-03-02T12:27:19.132Z,11.30
2018-03-02T12:28:19.142Z,10.90
2018-03-02T12:29:19.145Z,11.20
2018-03-02T12:30:19.153Z,10.70
2018-03-02T12:31:19.159Z,11.10
2018-03-02T12:32:19.164Z,10.50
2018-03-02T12:33:19.181Z,11.70
2018-03-02T12:34:19.180Z,11.00
2018-03-02T12:35:19.190Z,10.70
2018-03-02T12:36:19.193Z,11.10
2018-03-02T12:37:19.199Z,11.10
2018-03-02T12:38:19.206Z,10.90
2018-03-02T12:39:19.215Z,11.00
2018-03-02T12:40:19.220Z,11.00
2018-03-02T12:41:19.226Z,10.80
2018-03-02T12:42:19.233Z,10.00
2018-03-02T12:43:19.241Z,10.90
2018-03-02T12:44:19.248Z,10.10
2018-03-02T12:45:19.253Z,11.40
2018-03-02T12:46:19.259Z,10.70
2018-03-02T12:47:19.266Z,11.00
2018-03-02T12:48:19.274Z,11.00
2018-03-02T12:49:19.336Z,10.70
2018-03-02T12:50:19.290Z,10.90
2018-03-02T12:51:19.294Z,10.30
2018-03-02T12:52:19.302Z,10.70
2018-03-02T12:53:19.307Z,11.00
2018-03-02T12:54:19.368Z,10.60
2018-03-02T12:55:19.322Z,10.00
2018-03-02T12:56:19.336Z,11.70
2018-03-02T12:57:19.336Z,9.90
2018-03-02T12:58:19.342Z,10.30
2018-03-02T12:59:19.350Z,10.90
2018-03-02T13:00:19.357Z,10.40